sensor_id;sensor_type;location;lat;lon;timestamp;temperature;humidity
51500;DHT22;39101;53.478;6.158;2022-12-26T00:01:08;7.60;99.90
51500;DHT22;39101;53.478;6.158;2022-12-26T00:03:51;7.50;99.90
51500;DHT22;39101;53.478;6.158;2022-12-26T00:06:37;7.60;99.90
51500;DHT22;39101;53.478;6.158;2022-12-26T00:09:06;7.50;99.90
51500;DHT22;39101;53.478;6.158;2022-12-26T00:11:34;7.50;99.90
51500;DHT22;39101;53.478;6.158;2022-12-26T00:14:20;7.50;99.90
51500;DHT22;39101;53.478;6.158;2022-12-26T00:16:58;7.40;99.90
51500;DHT22;39101;53.478;6.158;2022-12-26T00:19:23;7.40;99.90
51500;DHT22;39101;53.478;6.158;2022-12-26T00:21:49;7.50;99.90
51500;DHT22;39101;53.478;6.158;2022-12-26T00:24:15;7.50;99.90
51500;DHT22;39101;53.478;6.158;2022-12-26T00:26:44;7.60;99.90
51500;DHT22;39101;53.478;6.158;2022-12-26T00:29:09;7.60;99.90
51500;DHT22;39101;53.478;6.158;2022-12-26T00:31:35;7.50;99.90
51500;DHT22;39101;53.478;6.158;2022-12-26T00:34:04;7.50;99.90
51500;DHT22;39101;53.478;6.158;2022-12-26T00:36:32;7.50;99.90
51500;DHT22;39101;53.478;6.158;2022-12-26T00:39:00;7.40;99.90
51500;DHT22;39101;53.478;6.158;2022-12-26T00:41:27;7.40;99.90
51500;DHT22;39101;53.478;6.158;2022-12-26T00:43:55;7.40;99.90
51500;DHT22;39101;53.478;6.158;2022-12-26T00:46:21;7.40;99.90
51500;DHT22;39101;53.478;6.158;2022-12-26T00:48:48;7.40;99.90
51500;DHT22;39101;53.478;6.158;2022-12-26T00:51:14;8.00;99.90
51500;DHT22;39101;53.478;6.158;2022-12-26T00:53:41;7.40;99.90
51500;DHT22;39101;53.478;6.158;2022-12-26T00:56:07;7.40;99.90
51500;DHT22;39101;53.478;6.158;2022-12-26T00:58:33;7.30;99.90
51500;DHT22;39101;53.478;6.158;2022-12-26T01:01:13;7.50;99.90
51500;DHT22;39101;53.478;6.158;2022-12-26T01:03:39;7.40;99.90
51500;DHT22;39101;53.478;6.158;2022-12-26T01:06:05;7.50;99.90
51500;DHT22;39101;53.478;6.158;2022-12-26T01:08:33;7.40;99.90
51500;DHT22;39101;53.478;6.158;2022-12-26T01:11:03;7.30;99.90
51500;DHT22;39101;53.478;6.158;2022-12-26T01:13:32;7.40;99.90
51500;DHT22;39101;53.478;6.158;2022-12-26T01:15:59;7.40;99.90
51500;DHT22;39101;53.478;6.158;2022-12-26T01:18:25;7.50;99.90
51500;DHT22;39101;53.478;6.158;2022-12-26T01:20:59;7.50;99.90
51500;DHT22;39101;53.478;6.158;2022-12-26T01:23:29;7.50;99.90
51500;DHT22;39101;53.478;6.158;2022-12-26T01:25:55;7.40;99.90
51500;DHT22;39101;53.478;6.158;2022-12-26T01:28:22;7.50;99.90
51500;DHT22;39101;53.478;6.158;2022-12-26T01:30:49;7.50;99.90
51500;DHT22;39101;53.478;6.158;2022-12-26T01:33:15;7.60;99.90
51500;DHT22;39101;53.478;6.158;2022-12-26T01:35:53;7.70;99.90
51500;DHT22;39101;53.478;6.158;2022-12-26T01:38:20;7.60;99.90
51500;DHT22;39101;53.478;6.158;2022-12-26T01:40:47;7.60;99.90
51500;DHT22;39101;53.478;6.158;2022-12-26T01:43:15;7.50;99.90
51500;DHT22;39101;53.478;6.158;2022-12-26T01:45:45;7.40;99.90
51500;DHT22;39101;53.478;6.158;2022-12-26T01:48:20;7.60;99.90
51500;DHT22;39101;53.478;6.158;2022-12-26T01:51:01;7.70;99.90
51500;DHT22;39101;53.478;6.158;2022-12-26T01:56:08;7.60;99.90
51500;DHT22;39101;53.478;6.158;2022-12-26T01:58:39;7.60;99.90
51500;DHT22;39101;53.478;6.158;2022-12-26T02:01:09;7.60;99.90
51500;DHT22;39101;53.478;6.158;2022-12-26T02:03:46;7.60;99.90
51500;DHT22;39101;53.478;6.158;2022-12-26T02:06:32;7.60;99.90
51500;DHT22;39101;53.478;6.158;2022-12-26T02:08:59;7.60;99.90
51500;DHT22;39101;53.478;6.158;2022-12-26T02:11:51;7.70;99.90
51500;DHT22;39101;53.478;6.158;2022-12-26T02:14:19;7.70;99.90
51500;DHT22;39101;53.478;6.158;2022-12-26T02:16:45;7.60;99.90
51500;DHT22;39101;53.478;6.158;2022-12-26T02:19:38;7.70;99.90
51500;DHT22;39101;53.478;6.158;2022-12-26T02:30:57;7.60;99.90
51500;DHT22;39101;53.478;6.158;2022-12-26T02:57:50;7.80;99.90
51500;DHT22;39101;53.478;6.158;2022-12-26T03:00:53;7.90;99.90
51500;DHT22;39101;53.478;6.158;2022-12-26T03:03:40;7.80;99.90
51500;DHT22;39101;53.478;6.158;2022-12-26T03:06:51;7.90;99.90
51500;DHT22;39101;53.478;6.158;2022-12-26T03:09:41;7.90;99.90
51500;DHT22;39101;53.478;6.158;2022-12-26T03:12:46;7.90;99.90
51500;DHT22;39101;53.478;6.158;2022-12-26T03:15:35;7.90;99.90
51500;DHT22;39101;53.478;6.158;2022-12-26T03:18:23;7.90;99.90
51500;DHT22;39101;53.478;6.158;2022-12-26T03:20:50;7.90;99.90
51500;DHT22;39101;53.478;6.158;2022-12-26T03:23:17;7.90;99.90
51500;DHT22;39101;53.478;6.158;2022-12-26T03:26:06;7.90;99.90
51500;DHT22;39101;53.478;6.158;2022-12-26T03:28:51;7.90;99.90
51500;DHT22;39101;53.478;6.158;2022-12-26T03:31:18;7.80;99.90
51500;DHT22;39101;53.478;6.158;2022-12-26T03:33:46;7.90;99.90
51500;DHT22;39101;53.478;6.158;2022-12-26T03:37:00;7.80;99.90
51500;DHT22;39101;53.478;6.158;2022-12-26T03:43:33;7.80;99.90
51500;DHT22;39101;53.478;6.158;2022-12-26T03:49:46;7.80;99.90
51500;DHT22;39101;53.478;6.158;2022-12-26T03:53:02;7.80;99.90
51500;DHT22;39101;53.478;6.158;2022-12-26T03:56:44;7.90;99.90
51500;DHT22;39101;53.478;6.158;2022-12-26T03:59:43;7.90;99.90
51500;DHT22;39101;53.478;6.158;2022-12-26T04:02:38;7.80;99.90
51500;DHT22;39101;53.478;6.158;2022-12-26T04:05:25;7.80;99.90
51500;DHT22;39101;53.478;6.158;2022-12-26T04:11:24;7.80;99.90
51500;DHT22;39101;53.478;6.158;2022-12-26T04:20:46;7.80;99.90
51500;DHT22;39101;53.478;6.158;2022-12-26T04:23:33;7.90;99.90
51500;DHT22;39101;53.478;6.158;2022-12-26T04:26:50;7.80;99.90
51500;DHT22;39101;53.478;6.158;2022-12-26T04:29:36;7.80;99.90
51500;DHT22;39101;53.478;6.158;2022-12-26T04:32:36;7.80;99.90
51500;DHT22;39101;53.478;6.158;2022-12-26T04:38:33;7.90;99.90
51500;DHT22;39101;53.478;6.158;2022-12-26T04:41:20;7.90;99.90
51500;DHT22;39101;53.478;6.158;2022-12-26T04:44:06;7.90;99.90
51500;DHT22;39101;53.478;6.158;2022-12-26T04:46:58;7.90;99.90
51500;DHT22;39101;53.478;6.158;2022-12-26T04:49:27;7.90;99.90
51500;DHT22;39101;53.478;6.158;2022-12-26T04:52:22;7.90;99.90
51500;DHT22;39101;53.478;6.158;2022-12-26T04:54:49;7.90;99.90
51500;DHT22;39101;53.478;6.158;2022-12-26T04:57:16;8.00;99.90
51500;DHT22;39101;53.478;6.158;2022-12-26T04:59:45;7.90;99.90
51500;DHT22;39101;53.478;6.158;2022-12-26T05:02:10;8.00;99.90
51500;DHT22;39101;53.478;6.158;2022-12-26T05:04:58;8.00;99.90
51500;DHT22;39101;53.478;6.158;2022-12-26T05:07:51;8.10;99.90
51500;DHT22;39101;53.478;6.158;2022-12-26T05:10:39;8.10;99.90
51500;DHT22;39101;53.478;6.158;2022-12-26T05:13:04;8.10;99.90
51500;DHT22;39101;53.478;6.158;2022-12-26T05:15:33;8.10;99.90
51500;DHT22;39101;53.478;6.158;2022-12-26T05:18:19;8.10;99.90
51500;DHT22;39101;53.478;6.158;2022-12-26T05:21:03;8.00;99.90
51500;DHT22;39101;53.478;6.158;2022-12-26T05:23:47;8.10;99.90
51500;DHT22;39101;53.478;6.158;2022-12-26T05:26:32;8.10;99.90
51500;DHT22;39101;53.478;6.158;2022-12-26T05:29:17;8.00;99.90
51500;DHT22;39101;53.478;6.158;2022-12-26T05:31:42;8.00;99.90
51500;DHT22;39101;53.478;6.158;2022-12-26T05:34:08;7.90;99.90
51500;DHT22;39101;53.478;6.158;2022-12-26T05:36:47;7.90;99.90
51500;DHT22;39101;53.478;6.158;2022-12-26T05:39:15;7.80;99.90
51500;DHT22;39101;53.478;6.158;2022-12-26T05:41:41;7.80;99.90
51500;DHT22;39101;53.478;6.158;2022-12-26T05:44:08;7.80;99.90
51500;DHT22;39101;53.478;6.158;2022-12-26T05:46:35;7.70;99.90
51500;DHT22;39101;53.478;6.158;2022-12-26T05:49:02;7.70;99.90
51500;DHT22;39101;53.478;6.158;2022-12-26T05:51:34;7.70;99.90
51500;DHT22;39101;53.478;6.158;2022-12-26T05:54:01;7.60;99.90
51500;DHT22;39101;53.478;6.158;2022-12-26T05:56:31;7.60;99.90
51500;DHT22;39101;53.478;6.158;2022-12-26T05:58:58;7.70;99.90
51500;DHT22;39101;53.478;6.158;2022-12-26T06:01:25;7.60;99.90
51500;DHT22;39101;53.478;6.158;2022-12-26T06:03:54;7.70;99.90
51500;DHT22;39101;53.478;6.158;2022-12-26T06:06:22;7.60;99.90
51500;DHT22;39101;53.478;6.158;2022-12-26T06:08:50;7.60;99.90
51500;DHT22;39101;53.478;6.158;2022-12-26T06:11:17;7.70;99.90
51500;DHT22;39101;53.478;6.158;2022-12-26T06:13:44;7.60;99.90
51500;DHT22;39101;53.478;6.158;2022-12-26T06:16:16;7.60;99.90
51500;DHT22;39101;53.478;6.158;2022-12-26T06:18:42;7.70;99.90
51500;DHT22;39101;53.478;6.158;2022-12-26T06:21:17;7.70;99.90
51500;DHT22;39101;53.478;6.158;2022-12-26T06:23:48;7.70;99.90
51500;DHT22;39101;53.478;6.158;2022-12-26T06:26:15;7.70;99.90
51500;DHT22;39101;53.478;6.158;2022-12-26T06:28:50;7.70;99.90
51500;DHT22;39101;53.478;6.158;2022-12-26T06:31:23;7.60;99.90
51500;DHT22;39101;53.478;6.158;2022-12-26T06:33:55;7.80;99.90
51500;DHT22;39101;53.478;6.158;2022-12-26T06:36:27;7.70;99.90
51500;DHT22;39101;53.478;6.158;2022-12-26T06:38:53;7.70;99.90
51500;DHT22;39101;53.478;6.158;2022-12-26T06:41:24;7.70;99.90
51500;DHT22;39101;53.478;6.158;2022-12-26T06:43:52;7.70;99.90
51500;DHT22;39101;53.478;6.158;2022-12-26T06:46:22;7.70;99.90
51500;DHT22;39101;53.478;6.158;2022-12-26T06:48:48;7.70;99.90
51500;DHT22;39101;53.478;6.158;2022-12-26T06:51:17;7.70;99.90
51500;DHT22;39101;53.478;6.158;2022-12-26T06:53:43;7.80;99.90
51500;DHT22;39101;53.478;6.158;2022-12-26T06:56:15;7.80;99.90
51500;DHT22;39101;53.478;6.158;2022-12-26T06:58:41;7.90;99.90
51500;DHT22;39101;53.478;6.158;2022-12-26T07:01:13;7.90;99.90
51500;DHT22;39101;53.478;6.158;2022-12-26T07:03:43;7.90;99.90
51500;DHT22;39101;53.478;6.158;2022-12-26T07:06:30;7.90;99.90
51500;DHT22;39101;53.478;6.158;2022-12-26T07:09:17;8.00;99.90
51500;DHT22;39101;53.478;6.158;2022-12-26T07:11:48;7.90;99.90
51500;DHT22;39101;53.478;6.158;2022-12-26T07:14:15;8.00;99.90
51500;DHT22;39101;53.478;6.158;2022-12-26T07:16:44;8.00;99.90
51500;DHT22;39101;53.478;6.158;2022-12-26T07:19:14;8.00;99.90
51500;DHT22;39101;53.478;6.158;2022-12-26T07:21:40;8.00;99.90
51500;DHT22;39101;53.478;6.158;2022-12-26T07:24:14;7.90;99.90
51500;DHT22;39101;53.478;6.158;2022-12-26T07:26:41;7.90;99.90
51500;DHT22;39101;53.478;6.158;2022-12-26T07:29:09;7.90;99.90
51500;DHT22;39101;53.478;6.158;2022-12-26T07:31:37;7.90;99.90
51500;DHT22;39101;53.478;6.158;2022-12-26T07:34:03;7.90;99.90
51500;DHT22;39101;53.478;6.158;2022-12-26T07:36:28;7.90;99.90
51500;DHT22;39101;53.478;6.158;2022-12-26T07:38:54;7.80;99.90
51500;DHT22;39101;53.478;6.158;2022-12-26T07:41:23;7.90;99.90
51500;DHT22;39101;53.478;6.158;2022-12-26T07:44:10;7.70;99.90
51500;DHT22;39101;53.478;6.158;2022-12-26T07:46:36;7.80;99.90
51500;DHT22;39101;53.478;6.158;2022-12-26T07:49:05;7.70;99.90
51500;DHT22;39101;53.478;6.158;2022-12-26T07:51:33;7.70;99.90
51500;DHT22;39101;53.478;6.158;2022-12-26T07:53:59;7.70;99.90
51500;DHT22;39101;53.478;6.158;2022-12-26T07:56:25;7.60;99.90
51500;DHT22;39101;53.478;6.158;2022-12-26T07:58:52;7.60;99.90
51500;DHT22;39101;53.478;6.158;2022-12-26T08:01:20;7.60;99.90
51500;DHT22;39101;53.478;6.158;2022-12-26T08:03:49;7.60;99.90
51500;DHT22;39101;53.478;6.158;2022-12-26T08:06:15;7.70;99.90
51500;DHT22;39101;53.478;6.158;2022-12-26T08:08:45;7.60;99.90
51500;DHT22;39101;53.478;6.158;2022-12-26T08:11:16;7.60;99.90
51500;DHT22;39101;53.478;6.158;2022-12-26T08:13:43;7.60;99.90
51500;DHT22;39101;53.478;6.158;2022-12-26T08:16:15;7.60;99.90
51500;DHT22;39101;53.478;6.158;2022-12-26T08:18:44;7.60;99.90
51500;DHT22;39101;53.478;6.158;2022-12-26T08:21:11;7.60;99.90
51500;DHT22;39101;53.478;6.158;2022-12-26T08:23:37;7.60;99.90
51500;DHT22;39101;53.478;6.158;2022-12-26T08:26:07;7.70;99.90
51500;DHT22;39101;53.478;6.158;2022-12-26T08:28:35;7.70;99.90
51500;DHT22;39101;53.478;6.158;2022-12-26T08:31:08;7.70;99.90
51500;DHT22;39101;53.478;6.158;2022-12-26T08:33:39;7.70;99.90
51500;DHT22;39101;53.478;6.158;2022-12-26T08:36:07;7.90;99.90
51500;DHT22;39101;53.478;6.158;2022-12-26T08:38:35;7.90;99.90
51500;DHT22;39101;53.478;6.158;2022-12-26T08:41:01;7.90;99.90
51500;DHT22;39101;53.478;6.158;2022-12-26T08:43:27;7.90;99.90
51500;DHT22;39101;53.478;6.158;2022-12-26T08:46:01;8.00;99.90
51500;DHT22;39101;53.478;6.158;2022-12-26T08:48:28;8.10;99.90
51500;DHT22;39101;53.478;6.158;2022-12-26T08:51:06;8.10;99.90
51500;DHT22;39101;53.478;6.158;2022-12-26T08:53:35;8.20;99.90
51500;DHT22;39101;53.478;6.158;2022-12-26T08:56:05;8.30;99.90
51500;DHT22;39101;53.478;6.158;2022-12-26T08:58:31;8.40;99.90
51500;DHT22;39101;53.478;6.158;2022-12-26T09:01:27;8.40;99.90
51500;DHT22;39101;53.478;6.158;2022-12-26T09:03:59;8.40;99.90
51500;DHT22;39101;53.478;6.158;2022-12-26T09:06:32;8.50;99.90
51500;DHT22;39101;53.478;6.158;2022-12-26T09:08:59;8.40;99.90
51500;DHT22;39101;53.478;6.158;2022-12-26T09:11:25;8.40;99.90
51500;DHT22;39101;53.478;6.158;2022-12-26T09:13:51;8.50;99.90
51500;DHT22;39101;53.478;6.158;2022-12-26T09:16:21;8.50;99.90
51500;DHT22;39101;53.478;6.158;2022-12-26T09:18:53;8.50;99.90
51500;DHT22;39101;53.478;6.158;2022-12-26T09:21:19;8.50;99.90
51500;DHT22;39101;53.478;6.158;2022-12-26T09:23:48;8.50;99.90
51500;DHT22;39101;53.478;6.158;2022-12-26T09:26:17;8.30;99.90
51500;DHT22;39101;53.478;6.158;2022-12-26T09:28:44;8.10;99.90
51500;DHT22;39101;53.478;6.158;2022-12-26T09:31:23;7.90;99.90
51500;DHT22;39101;53.478;6.158;2022-12-26T09:33:51;7.80;99.90
51500;DHT22;39101;53.478;6.158;2022-12-26T09:36:23;7.60;99.90
51500;DHT22;39101;53.478;6.158;2022-12-26T09:38:52;7.50;99.90
51500;DHT22;39101;53.478;6.158;2022-12-26T09:41:46;7.40;99.90
51500;DHT22;39101;53.478;6.158;2022-12-26T09:55:46;7.50;99.90
51500;DHT22;39101;53.478;6.158;2022-12-26T09:59:03;7.40;99.90
51500;DHT22;39101;53.478;6.158;2022-12-26T10:01:33;7.50;99.90
51500;DHT22;39101;53.478;6.158;2022-12-26T10:04:04;7.50;99.90
51500;DHT22;39101;53.478;6.158;2022-12-26T10:06:59;7.60;99.90
51500;DHT22;39101;53.478;6.158;2022-12-26T10:09:58;7.50;99.90
51500;DHT22;39101;53.478;6.158;2022-12-26T10:13:11;7.50;99.90
51500;DHT22;39101;53.478;6.158;2022-12-26T10:16:24;7.40;99.90
51500;DHT22;39101;53.478;6.158;2022-12-26T10:19:30;7.40;99.90
51500;DHT22;39101;53.478;6.158;2022-12-26T10:24:45;7.30;99.90
51500;DHT22;39101;53.478;6.158;2022-12-26T10:27:35;7.30;99.90
51500;DHT22;39101;53.478;6.158;2022-12-26T10:30:06;7.20;99.90
51500;DHT22;39101;53.478;6.158;2022-12-26T10:33:02;7.20;99.90
51500;DHT22;39101;53.478;6.158;2022-12-26T10:35:49;7.20;99.90
51500;DHT22;39101;53.478;6.158;2022-12-26T10:38:36;7.20;99.90
51500;DHT22;39101;53.478;6.158;2022-12-26T10:41:10;7.00;99.90
51500;DHT22;39101;53.478;6.158;2022-12-26T10:43:39;7.10;99.90
51500;DHT22;39101;53.478;6.158;2022-12-26T10:48:50;7.00;99.90
51500;DHT22;39101;53.478;6.158;2022-12-26T10:51:16;6.90;99.90
51500;DHT22;39101;53.478;6.158;2022-12-26T10:53:48;7.00;99.90
51500;DHT22;39101;53.478;6.158;2022-12-26T10:56:26;7.10;99.90
51500;DHT22;39101;53.478;6.158;2022-12-26T10:59:01;7.00;99.90
51500;DHT22;39101;53.478;6.158;2022-12-26T11:01:36;7.00;99.90
51500;DHT22;39101;53.478;6.158;2022-12-26T11:04:05;7.00;99.90
51500;DHT22;39101;53.478;6.158;2022-12-26T11:06:37;6.90;99.90
51500;DHT22;39101;53.478;6.158;2022-12-26T11:09:04;6.90;99.90
51500;DHT22;39101;53.478;6.158;2022-12-26T11:11:35;7.00;99.90
51500;DHT22;39101;53.478;6.158;2022-12-26T11:14:32;7.00;99.90
51500;DHT22;39101;53.478;6.158;2022-12-26T11:17:23;6.90;99.90
51500;DHT22;39101;53.478;6.158;2022-12-26T11:20:20;6.80;99.90
51500;DHT22;39101;53.478;6.158;2022-12-26T11:22:54;6.70;99.90
51500;DHT22;39101;53.478;6.158;2022-12-26T11:25:47;6.80;99.90
51500;DHT22;39101;53.478;6.158;2022-12-26T11:28:35;6.70;99.90
51500;DHT22;39101;53.478;6.158;2022-12-26T11:31:06;6.80;99.90
51500;DHT22;39101;53.478;6.158;2022-12-26T11:33:44;6.80;99.90
51500;DHT22;39101;53.478;6.158;2022-12-26T11:36:21;6.80;99.90
51500;DHT22;39101;53.478;6.158;2022-12-26T11:38:59;6.90;99.90
51500;DHT22;39101;53.478;6.158;2022-12-26T11:41:37;6.90;99.90
51500;DHT22;39101;53.478;6.158;2022-12-26T11:44:16;7.00;99.90
51500;DHT22;39101;53.478;6.158;2022-12-26T11:47:11;6.90;99.90
51500;DHT22;39101;53.478;6.158;2022-12-26T11:50:00;7.00;99.90
51500;DHT22;39101;53.478;6.158;2022-12-26T11:52:37;7.00;99.90
51500;DHT22;39101;53.478;6.158;2022-12-26T12:03:32;7.00;99.90
51500;DHT22;39101;53.478;6.158;2022-12-26T12:09:04;6.90;99.90
51500;DHT22;39101;53.478;6.158;2022-12-26T12:17:41;6.80;99.90
51500;DHT22;39101;53.478;6.158;2022-12-26T12:33:56;6.90;99.90
51500;DHT22;39101;53.478;6.158;2022-12-26T12:45:31;7.00;99.90
51500;DHT22;39101;53.478;6.158;2022-12-26T12:48:21;7.00;99.90
51500;DHT22;39101;53.478;6.158;2022-12-26T12:51:32;7.00;99.90
51500;DHT22;39101;53.478;6.158;2022-12-26T12:59:59;6.90;99.90
51500;DHT22;39101;53.478;6.158;2022-12-26T13:02:35;7.00;99.90
51500;DHT22;39101;53.478;6.158;2022-12-26T13:11:25;6.90;99.90
51500;DHT22;39101;53.478;6.158;2022-12-26T13:16:45;6.90;99.90
51500;DHT22;39101;53.478;6.158;2022-12-26T13:21:43;6.90;99.90
51500;DHT22;39101;53.478;6.158;2022-12-26T13:24:40;6.90;99.90
51500;DHT22;39101;53.478;6.158;2022-12-26T13:27:35;6.90;99.90
51500;DHT22;39101;53.478;6.158;2022-12-26T13:30:12;6.90;99.90
51500;DHT22;39101;53.478;6.158;2022-12-26T13:32:38;7.00;99.90
51500;DHT22;39101;53.478;6.158;2022-12-26T13:35:05;7.10;99.90
51500;DHT22;39101;53.478;6.158;2022-12-26T13:40:15;7.00;99.90
51500;DHT22;39101;53.478;6.158;2022-12-26T13:51:04;6.70;99.90
51500;DHT22;39101;53.478;6.158;2022-12-26T13:53:32;6.90;99.90
51500;DHT22;39101;53.478;6.158;2022-12-26T13:55:59;6.80;99.90
51500;DHT22;39101;53.478;6.158;2022-12-26T14:04:38;6.80;99.90
51500;DHT22;39101;53.478;6.158;2022-12-26T14:20:46;6.60;99.90
51500;DHT22;39101;53.478;6.158;2022-12-26T14:29:43;6.50;99.90
51500;DHT22;39101;53.478;6.158;2022-12-26T14:35:32;6.50;99.90
51500;DHT22;39101;53.478;6.158;2022-12-26T14:41:07;6.50;99.90
51500;DHT22;39101;53.478;6.158;2022-12-26T14:43:56;6.30;99.90
51500;DHT22;39101;53.478;6.158;2022-12-26T14:49:22;6.10;99.90
51500;DHT22;39101;53.478;6.158;2022-12-26T14:51:50;6.10;99.90
51500;DHT22;39101;53.478;6.158;2022-12-26T14:54:37;6.10;99.90
51500;DHT22;39101;53.478;6.158;2022-12-26T15:00:27;6.20;99.90
51500;DHT22;39101;53.478;6.158;2022-12-26T15:05:36;6.10;99.90
51500;DHT22;39101;53.478;6.158;2022-12-26T15:16:52;6.00;99.90
51500;DHT22;39101;53.478;6.158;2022-12-26T15:36:02;5.70;99.90
51500;DHT22;39101;53.478;6.158;2022-12-26T15:41:43;5.60;99.90
51500;DHT22;39101;53.478;6.158;2022-12-26T15:44:48;5.60;99.90
51500;DHT22;39101;53.478;6.158;2022-12-26T16:01:51;5.60;99.90
51500;DHT22;39101;53.478;6.158;2022-12-26T16:04:37;5.40;99.90
51500;DHT22;39101;53.478;6.158;2022-12-26T16:07:41;5.50;99.90
51500;DHT22;39101;53.478;6.158;2022-12-26T16:10:33;5.60;99.90
51500;DHT22;39101;53.478;6.158;2022-12-26T16:13:25;5.40;99.90
51500;DHT22;39101;53.478;6.158;2022-12-26T16:15:55;5.40;99.90
51500;DHT22;39101;53.478;6.158;2022-12-26T16:18:31;5.50;99.90
51500;DHT22;39101;53.478;6.158;2022-12-26T16:21:05;5.50;99.90
51500;DHT22;39101;53.478;6.158;2022-12-26T16:23:53;5.50;99.90
51500;DHT22;39101;53.478;6.158;2022-12-26T16:26:30;5.70;99.90
51500;DHT22;39101;53.478;6.158;2022-12-26T16:29:18;5.50;99.90
51500;DHT22;39101;53.478;6.158;2022-12-26T16:31:46;5.50;99.90
51500;DHT22;39101;53.478;6.158;2022-12-26T16:34:18;5.40;99.90
51500;DHT22;39101;53.478;6.158;2022-12-26T16:36:56;5.40;99.90
51500;DHT22;39101;53.478;6.158;2022-12-26T16:39:22;5.40;99.90
51500;DHT22;39101;53.478;6.158;2022-12-26T16:42:06;5.40;99.90
51500;DHT22;39101;53.478;6.158;2022-12-26T16:44:38;5.30;99.90
51500;DHT22;39101;53.478;6.158;2022-12-26T16:47:10;5.30;99.90
51500;DHT22;39101;53.478;6.158;2022-12-26T16:49:36;5.40;99.90
51500;DHT22;39101;53.478;6.158;2022-12-26T16:52:02;5.50;99.90
51500;DHT22;39101;53.478;6.158;2022-12-26T16:54:37;5.30;99.90
51500;DHT22;39101;53.478;6.158;2022-12-26T16:59:42;5.30;99.90
51500;DHT22;39101;53.478;6.158;2022-12-26T17:02:33;5.30;99.90
51500;DHT22;39101;53.478;6.158;2022-12-26T17:05:05;5.30;99.90
51500;DHT22;39101;53.478;6.158;2022-12-26T17:07:34;5.20;99.90
51500;DHT22;39101;53.478;6.158;2022-12-26T17:10:02;5.30;99.90
51500;DHT22;39101;53.478;6.158;2022-12-26T17:12:36;5.20;99.90
51500;DHT22;39101;53.478;6.158;2022-12-26T17:15:05;5.20;99.90
51500;DHT22;39101;53.478;6.158;2022-12-26T17:17:36;5.30;99.90
51500;DHT22;39101;53.478;6.158;2022-12-26T17:22:55;5.30;99.90
51500;DHT22;39101;53.478;6.158;2022-12-26T17:25:33;5.30;99.90
51500;DHT22;39101;53.478;6.158;2022-12-26T17:30:46;5.20;99.90
51500;DHT22;39101;53.478;6.158;2022-12-26T17:36:03;5.10;99.90
51500;DHT22;39101;53.478;6.158;2022-12-26T17:38:36;5.20;99.90
51500;DHT22;39101;53.478;6.158;2022-12-26T17:41:11;5.20;99.90
51500;DHT22;39101;53.478;6.158;2022-12-26T17:43:39;5.10;99.90
51500;DHT22;39101;53.478;6.158;2022-12-26T17:46:06;5.10;99.90
51500;DHT22;39101;53.478;6.158;2022-12-26T17:48:34;5.10;99.90
51500;DHT22;39101;53.478;6.158;2022-12-26T17:51:09;5.10;99.90
51500;DHT22;39101;53.478;6.158;2022-12-26T17:53:55;5.20;99.90
51500;DHT22;39101;53.478;6.158;2022-12-26T17:56:22;5.20;99.90
51500;DHT22;39101;53.478;6.158;2022-12-26T17:58:51;5.20;99.90
51500;DHT22;39101;53.478;6.158;2022-12-26T18:01:17;5.60;99.90
51500;DHT22;39101;53.478;6.158;2022-12-26T18:03:46;5.20;99.90
51500;DHT22;39101;53.478;6.158;2022-12-26T18:06:14;5.30;99.90
51500;DHT22;39101;53.478;6.158;2022-12-26T18:08:41;5.40;99.90
51500;DHT22;39101;53.478;6.158;2022-12-26T18:11:11;5.20;99.90
51500;DHT22;39101;53.478;6.158;2022-12-26T18:13:37;5.20;99.90
51500;DHT22;39101;53.478;6.158;2022-12-26T18:16:03;5.30;99.90
51500;DHT22;39101;53.478;6.158;2022-12-26T18:18:36;5.30;99.90
51500;DHT22;39101;53.478;6.158;2022-12-26T18:21:03;5.20;99.90
51500;DHT22;39101;53.478;6.158;2022-12-26T18:23:31;5.30;99.90
51500;DHT22;39101;53.478;6.158;2022-12-26T18:26:00;5.10;99.90
51500;DHT22;39101;53.478;6.158;2022-12-26T18:28:27;5.30;99.90
51500;DHT22;39101;53.478;6.158;2022-12-26T18:30:52;5.20;99.90
51500;DHT22;39101;53.478;6.158;2022-12-26T18:33:19;5.50;99.90
51500;DHT22;39101;53.478;6.158;2022-12-26T18:35:45;5.30;99.90
51500;DHT22;39101;53.478;6.158;2022-12-26T18:38:15;5.00;99.90
51500;DHT22;39101;53.478;6.158;2022-12-26T18:40:49;5.10;99.90
51500;DHT22;39101;53.478;6.158;2022-12-26T18:43:15;5.10;99.90
51500;DHT22;39101;53.478;6.158;2022-12-26T18:45:46;5.00;99.90
51500;DHT22;39101;53.478;6.158;2022-12-26T18:48:14;5.00;99.90
51500;DHT22;39101;53.478;6.158;2022-12-26T18:50:43;5.10;99.90
51500;DHT22;39101;53.478;6.158;2022-12-26T18:53:10;5.00;99.90
51500;DHT22;39101;53.478;6.158;2022-12-26T18:55:35;5.00;99.90
51500;DHT22;39101;53.478;6.158;2022-12-26T18:58:01;5.10;99.90
51500;DHT22;39101;53.478;6.158;2022-12-26T19:00:27;5.10;99.90
51500;DHT22;39101;53.478;6.158;2022-12-26T19:02:53;5.00;99.90
51500;DHT22;39101;53.478;6.158;2022-12-26T19:05:29;5.10;99.90
51500;DHT22;39101;53.478;6.158;2022-12-26T19:07:58;5.20;99.90
51500;DHT22;39101;53.478;6.158;2022-12-26T19:10:27;5.20;99.90
51500;DHT22;39101;53.478;6.158;2022-12-26T19:12:55;5.20;99.90
51500;DHT22;39101;53.478;6.158;2022-12-26T19:15:21;5.60;99.90
51500;DHT22;39101;53.478;6.158;2022-12-26T19:17:49;5.20;99.90
51500;DHT22;39101;53.478;6.158;2022-12-26T19:20:24;5.30;99.90
51500;DHT22;39101;53.478;6.158;2022-12-26T19:22:52;5.40;99.90
51500;DHT22;39101;53.478;6.158;2022-12-26T19:25:19;5.20;99.90
51500;DHT22;39101;53.478;6.158;2022-12-26T19:27:49;5.20;99.90
51500;DHT22;39101;53.478;6.158;2022-12-26T19:30:16;5.10;99.90
51500;DHT22;39101;53.478;6.158;2022-12-26T19:32:49;5.10;99.90
51500;DHT22;39101;53.478;6.158;2022-12-26T19:35:16;5.10;99.90
51500;DHT22;39101;53.478;6.158;2022-12-26T19:37:43;5.10;99.90
51500;DHT22;39101;53.478;6.158;2022-12-26T19:40:11;5.10;99.90
51500;DHT22;39101;53.478;6.158;2022-12-26T19:42:37;5.30;99.90
51500;DHT22;39101;53.478;6.158;2022-12-26T19:45:04;5.30;99.90
51500;DHT22;39101;53.478;6.158;2022-12-26T19:47:30;5.40;99.90
51500;DHT22;39101;53.478;6.158;2022-12-26T19:50:07;5.30;99.90
51500;DHT22;39101;53.478;6.158;2022-12-26T19:52:33;5.40;99.90
51500;DHT22;39101;53.478;6.158;2022-12-26T19:55:04;5.30;99.90
51500;DHT22;39101;53.478;6.158;2022-12-26T19:57:31;5.10;99.90
51500;DHT22;39101;53.478;6.158;2022-12-26T19:59:56;5.10;99.90
51500;DHT22;39101;53.478;6.158;2022-12-26T20:02:22;5.50;99.90
51500;DHT22;39101;53.478;6.158;2022-12-26T20:04:49;5.10;99.90
51500;DHT22;39101;53.478;6.158;2022-12-26T20:07:15;5.00;99.90
51500;DHT22;39101;53.478;6.158;2022-12-26T20:09:40;5.30;99.90
51500;DHT22;39101;53.478;6.158;2022-12-26T20:12:06;5.20;99.90
51500;DHT22;39101;53.478;6.158;2022-12-26T20:14:33;5.30;99.90
51500;DHT22;39101;53.478;6.158;2022-12-26T20:16:59;5.20;99.90
51500;DHT22;39101;53.478;6.158;2022-12-26T20:19:26;5.40;99.90
51500;DHT22;39101;53.478;6.158;2022-12-26T20:21:57;5.40;99.90
51500;DHT22;39101;53.478;6.158;2022-12-26T20:24:24;5.40;99.90
51500;DHT22;39101;53.478;6.158;2022-12-26T20:26:50;5.30;99.90